Time,TemperatureF,DewpointF,PressureIn,WindDirection,WindDirectionDegrees,WindSpeedMPH,WindSpeedGustMPH,Humidity,HourlyPrecipIn,Conditions,Clouds,dailyrainin,SoftwareType,DateUTC
2013-07-11 00:02:00,84.9,72.2,29.83,East,98,0.0,-999.0,66,0.00,,,0.00,WeatherSnoop3.0,2013-07-11 05:02:00,
2013-07-11 00:07:00,84.8,71.7,29.83,ENE,78,3.0,-999.0,65,0.00,,,0.00,WeatherSnoop3.0,2013-07-11 05:07:00,
2013-07-11 00:12:00,84.6,71.5,29.84,East,98,3.0,-999.0,65,0.00,,,0.00,WeatherSnoop3.0,2013-07-11 05:12:00,
2013-07-11 00:17:00,84.5,71.0,29.84,ENE,68,3.0,-999.0,64,0.00,,,0.00,WeatherSnoop3.0,2013-07-11 05:17:00,
2013-07-11 00:22:00,84.3,69.8,29.84,ESE,113,1.0,-999.0,62,0.00,,,0.00,WeatherSnoop3.0,2013-07-11 05:22:00,
2013-07-11 00:27:00,84.1,69.6,29.84,ESE,105,1.0,-999.0,62,0.00,,,0.00,WeatherSnoop3.0,2013-07-11 05:27:00,
2013-07-11 00:32:00,83.9,69.5,29.84,NE,50,1.0,-999.0,62,0.00,,,0.00,WeatherSnoop3.0,2013-07-11 05:32:00,
2013-07-11 00:37:00,83.6,69.2,29.84,ESE,105,2.0,-999.0,62,0.00,,,0.00,WeatherSnoop3.0,2013-07-11 05:37:00,
2013-07-11 00:42:00,83.5,69.6,29.84,SW,232,4.0,-999.0,63,0.00,,,0.00,WeatherSnoop3.0,2013-07-11 05:42:00,
2013-07-11 00:47:00,83.3,69.4,29.84,East,79,3.0,-999.0,63,0.00,,,0.00,WeatherSnoop3.0,2013-07-11 05:47:00,
2013-07-11 00:52:00,83.1,69.2,29.84,East,98,0.0,-999.0,63,0.00,,,0.00,WeatherSnoop3.0,2013-07-11 05:52:00,
2013-07-11 00:57:00,82.9,69.0,29.84,SE,145,1.0,-999.0,63,0.00,,,0.00,WeatherSnoop3.0,2013-07-11 05:57:00,
2013-07-11 01:02:00,82.7,68.3,29.84,ENE,77,2.0,-999.0,62,0.00,,,0.00,WeatherSnoop3.0,2013-07-11 06:02:00,
2013-07-11 01:08:00,82.6,68.2,29.84,ESE,102,1.0,-999.0,62,0.00,,,0.00,WeatherSnoop3.0,2013-07-11 06:08:00,
2013-07-11 01:13:00,82.4,68.0,29.84,ESE,110,1.0,-999.0,62,0.00,,,0.00,WeatherSnoop3.0,2013-07-11 06:13:00,
2013-07-11 01:18:00,82.2,68.3,29.84,East,88,1.0,-999.0,63,0.00,,,0.00,WeatherSnoop3.0,2013-07-11 06:18:00,
2013-07-11 01:23:00,82.0,68.1,29.84,ESE,110,2.0,-999.0,63,0.00,,,0.00,WeatherSnoop3.0,2013-07-11 06:23:00,
2013-07-11 01:28:00,81.8,68.4,29.84,East,82,1.0,-999.0,64,0.00,,,0.00,WeatherSnoop3.0,2013-07-11 06:28:00,
2013-07-11 01:33:00,81.7,68.8,29.84,East,84,2.0,-999.0,65,0.00,,,0.00,WeatherSnoop3.0,2013-07-11 06:33:00,
2013-07-11 01:38:00,81.6,68.7,29.83,East,88,2.0,-999.0,65,0.00,,,0.00,WeatherSnoop3.0,2013-07-11 06:38:00,
2013-07-11 01:43:00,81.4,68.9,29.83,ESE,110,2.0,-999.0,66,0.00,,,0.00,WeatherSnoop3.0,2013-07-11 06:43:00,
2013-07-11 01:48:00,81.3,69.3,29.83,East,96,1.0,-999.0,67,0.00,,,0.00,WeatherSnoop3.0,2013-07-11 06:48:00,
2013-07-11 01:53:00,81.2,69.6,29.83,East,84,1.0,-999.0,68,0.00,,,0.00,WeatherSnoop3.0,2013-07-11 06:53:00,
2013-07-11 01:58:00,81.0,69.4,29.83,ESE,105,0.0,-999.0,68,0.00,,,0.00,WeatherSnoop3.0,2013-07-11 06:58:00,
2013-07-11 02:03:00,81.0,69.8,29.82,SE,129,1.0,-999.0,69,0.00,,,0.00,WeatherSnoop3.0,2013-07-11 07:03:00,
2013-07-11 02:08:00,80.9,69.8,29.82,ESE,122,1.0,-999.0,69,0.00,,,0.00,WeatherSnoop3.0,2013-07-11 07:08:00,
2013-07-11 02:13:00,80.8,70.1,29.82,ESE,104,2.0,-999.0,70,0.00,,,0.00,WeatherSnoop3.0,2013-07-11 07:13:00,
2013-07-11 02:18:00,80.7,70.0,29.82,SE,142,1.0,-999.0,70,0.00,,,0.00,WeatherSnoop3.0,2013-07-11 07:18:00,
2013-07-11 02:23:00,80.6,69.9,29.82,East,98,2.0,-999.0,70,0.00,,,0.00,WeatherSnoop3.0,2013-07-11 07:23:00,
2013-07-11 02:28:00,80.5,70.2,29.81,East,96,0.0,-999.0,71,0.00,,,0.00,WeatherSnoop3.0,2013-07-11 07:28:00,
2013-07-11 02:33:00,80.4,70.1,29.81,East,96,2.0,-999.0,71,0.00,,,0.00,WeatherSnoop3.0,2013-07-11 07:33:00,
2013-07-11 02:38:00,80.3,70.0,29.81,ENE,71,0.0,-999.0,71,0.00,,,0.00,WeatherSnoop3.0,2013-07-11 07:38:00,
2013-07-11 02:43:00,80.2,69.9,29.81,SSE,158,2.0,-999.0,71,0.00,,,0.00,WeatherSnoop3.0,2013-07-11 07:43:00,
2013-07-11 02:48:00,80.1,69.8,29.81,East,99,0.0,-999.0,71,0.00,,,0.00,WeatherSnoop3.0,2013-07-11 07:48:00,
2013-07-11 02:53:00,80.1,69.8,29.81,ESE,104,1.0,-999.0,71,0.00,,,0.00,WeatherSnoop3.0,2013-07-11 07:53:00,
2013-07-11 02:58:00,80.1,69.8,29.82,SSE,162,3.0,-999.0,71,0.00,,,0.00,WeatherSnoop3.0,2013-07-11 07:58:00,
2013-07-11 03:03:00,80.0,69.7,29.82,SSE,147,3.0,-999.0,71,0.00,,,0.00,WeatherSnoop3.0,2013-07-11 08:03:00,
2013-07-11 03:08:00,79.9,69.2,29.82,East,98,2.0,-999.0,70,0.00,,,0.00,WeatherSnoop3.0,2013-07-11 08:08:00,
2013-07-11 03:13:00,79.8,69.5,29.82,SSE,149,3.0,-999.0,71,0.00,,,0.00,WeatherSnoop3.0,2013-07-11 08:13:00,
2013-07-11 03:18:00,79.8,69.1,29.82,East,92,1.0,-999.0,70,0.00,,,0.00,WeatherSnoop3.0,2013-07-11 08:18:00,
2013-07-11 03:23:00,79.8,69.1,29.82,ESE,110,1.0,-999.0,70,0.00,,,0.00,WeatherSnoop3.0,2013-07-11 08:23:00,
2013-07-11 03:28:00,79.8,69.1,29.81,SE,145,1.0,-999.0,70,0.00,,,0.00,WeatherSnoop3.0,2013-07-11 08:28:00,
2013-07-11 03:33:00,79.8,68.7,29.82,SE,146,3.0,-999.0,69,0.00,,,0.00,WeatherSnoop3.0,2013-07-11 08:33:00,
2013-07-11 03:38:00,79.7,68.6,29.82,South,190,0.0,-999.0,69,0.00,,,0.00,WeatherSnoop3.0,2013-07-11 08:38:00,
2013-07-11 03:43:00,79.7,68.2,29.82,SE,138,2.0,-999.0,68,0.00,,,0.00,WeatherSnoop3.0,2013-07-11 08:43:00,
2013-07-11 03:48:00,79.7,68.2,29.82,WSW,249,0.0,-999.0,68,0.00,,,0.00,WeatherSnoop3.0,2013-07-11 08:48:00,
2013-07-11 03:53:00,79.6,67.7,29.82,East,91,1.0,-999.0,67,0.00,,,0.00,WeatherSnoop3.0,2013-07-11 08:53:00,
2013-07-11 03:58:00,79.7,67.3,29.82,ESE,108,0.0,-999.0,66,0.00,,,0.00,WeatherSnoop3.0,2013-07-11 08:58:00,
2013-07-11 04:03:00,79.7,66.9,29.82,SSE,158,2.0,-999.0,65,0.00,,,0.00,WeatherSnoop3.0,2013-07-11 09:03:00,
2013-07-11 04:08:00,79.7,66.9,29.82,East,91,1.0,-999.0,65,0.00,,,0.00,WeatherSnoop3.0,2013-07-11 09:08:00,
2013-07-11 04:13:00,79.6,66.8,29.82,East,95,1.0,-999.0,65,0.00,,,0.00,WeatherSnoop3.0,2013-07-11 09:13:00,
2013-07-11 04:18:00,79.4,66.6,29.82,SE,140,0.0,-999.0,65,0.00,,,0.00,WeatherSnoop3.0,2013-07-11 09:18:00,
2013-07-11 04:23:00,79.3,66.5,29.82,ESE,102,1.0,-999.0,65,0.00,,,0.00,WeatherSnoop3.0,2013-07-11 09:23:00,
2013-07-11 04:28:00,79.2,66.0,29.81,East,93,0.0,-999.0,64,0.00,,,0.00,WeatherSnoop3.0,2013-07-11 09:28:00,
2013-07-11 04:33:00,79.2,66.0,29.81,East,91,2.0,-999.0,64,0.00,,,0.00,WeatherSnoop3.0,2013-07-11 09:33:00,
2013-07-11 04:38:00,79.1,65.4,29.81,ESE,121,1.0,-999.0,63,0.00,,,0.00,WeatherSnoop3.0,2013-07-11 09:38:00,
2013-07-11 04:43:00,79.1,64.9,29.81,SSE,160,3.0,-999.0,62,0.00,,,0.00,WeatherSnoop3.0,2013-07-11 09:43:00,
2013-07-11 04:48:00,79.0,64.8,29.81,SSE,154,1.0,-999.0,62,0.00,,,0.00,WeatherSnoop3.0,2013-07-11 09:48:00,
2013-07-11 04:53:00,79.0,64.8,29.81,ESE,110,1.0,-999.0,62,0.00,,,0.00,WeatherSnoop3.0,2013-07-11 09:53:00,
2013-07-11 04:58:00,78.9,64.8,29.81,SE,126,3.0,-999.0,62,0.00,,,0.00,WeatherSnoop3.0,2013-07-11 09:58:00,
2013-07-11 05:03:00,78.9,65.2,29.81,SE,132,0.0,-999.0,63,0.00,,,0.00,WeatherSnoop3.0,2013-07-11 10:03:00,
2013-07-11 05:08:00,78.8,64.7,29.82,ESE,110,1.0,-999.0,62,0.00,,,0.00,WeatherSnoop3.0,2013-07-11 10:08:00,
2013-07-11 05:13:00,78.9,65.2,29.81,ESE,107,1.0,-999.0,63,0.00,,,0.00,WeatherSnoop3.0,2013-07-11 10:13:00,
2013-07-11 05:18:00,78.9,65.2,29.81,ESE,104,2.0,-999.0,63,0.00,,,0.00,WeatherSnoop3.0,2013-07-11 10:18:00,
2013-07-11 05:23:00,79.0,65.3,29.81,ESE,103,1.0,-999.0,63,0.00,,,0.00,WeatherSnoop3.0,2013-07-11 10:23:00,
2013-07-11 05:28:00,78.9,65.7,29.81,South,181,6.0,-999.0,64,0.00,,,0.00,WeatherSnoop3.0,2013-07-11 10:28:00,
2013-07-11 05:33:00,79.0,65.8,29.81,East,91,1.0,-999.0,64,0.00,,,0.00,WeatherSnoop3.0,2013-07-11 10:33:00,
2013-07-11 05:38:00,78.9,65.7,29.81,SE,142,4.0,-999.0,64,0.00,,,0.00,WeatherSnoop3.0,2013-07-11 10:38:00,
2013-07-11 05:43:00,78.8,66.0,29.81,East,98,1.0,-999.0,65,0.00,,,0.00,WeatherSnoop3.0,2013-07-11 10:43:00,
2013-07-11 05:48:00,78.5,66.2,29.81,SSE,158,3.0,-999.0,66,0.00,,,0.00,WeatherSnoop3.0,2013-07-11 10:48:00,
2013-07-11 05:53:00,78.2,67.2,29.81,East,100,3.0,-999.0,69,0.00,,,0.00,WeatherSnoop3.0,2013-07-11 10:53:00,
2013-07-11 05:58:00,78.0,67.8,29.81,ESE,122,4.0,-999.0,71,0.00,,,0.00,WeatherSnoop3.0,2013-07-11 10:58:00,
2013-07-11 06:03:00,77.8,67.2,29.81,South,184,9.0,-999.0,70,0.00,,,0.00,WeatherSnoop3.0,2013-07-11 11:03:00,
2013-07-11 06:08:00,77.6,67.4,29.81,ESE,117,2.0,-999.0,71,0.00,,,0.00,WeatherSnoop3.0,2013-07-11 11:08:00,
2013-07-11 06:13:00,77.3,67.1,29.81,ESE,115,4.0,-999.0,71,0.00,,,0.00,WeatherSnoop3.0,2013-07-11 11:13:00,
2013-07-11 06:18:00,77.1,67.4,29.81,SSE,150,3.0,-999.0,72,0.00,,,0.00,WeatherSnoop3.0,2013-07-11 11:18:00,
2013-07-11 06:23:00,77.1,67.8,29.81,ENE,70,4.0,-999.0,73,0.00,,,0.00,WeatherSnoop3.0,2013-07-11 11:23:00,
2013-07-11 06:28:00,77.1,67.8,29.81,SSE,167,2.0,-999.0,73,0.00,,,0.00,WeatherSnoop3.0,2013-07-11 11:28:00,
2013-07-11 06:33:00,77.2,67.9,29.81,ESE,110,2.0,-999.0,73,0.00,,,0.00,WeatherSnoop3.0,2013-07-11 11:33:00,
2013-07-11 06:38:00,77.2,67.5,29.82,ESE,104,1.0,-999.0,72,0.00,,,0.00,WeatherSnoop3.0,2013-07-11 11:38:00,
2013-07-11 06:43:00,77.3,67.1,29.82,East,82,2.0,-999.0,71,0.00,,,0.00,WeatherSnoop3.0,2013-07-11 11:43:00,
2013-07-11 06:48:00,77.3,67.1,29.82,East,92,2.0,-999.0,71,0.00,,,0.00,WeatherSnoop3.0,2013-07-11 11:48:00,
2013-07-11 06:53:00,77.3,66.7,29.82,SE,125,0.0,-999.0,70,0.00,,,0.00,WeatherSnoop3.0,2013-07-11 11:53:00,
2013-07-11 06:58:00,77.4,66.8,29.82,ESE,103,1.0,-999.0,70,0.00,,,0.00,WeatherSnoop3.0,2013-07-11 11:58:00,
2013-07-11 07:03:00,77.4,66.8,29.83,East,95,2.0,-999.0,70,0.00,,,0.00,WeatherSnoop3.0,2013-07-11 12:03:00,
2013-07-11 07:08:00,77.4,66.8,29.82,SE,142,2.0,-999.0,70,0.00,,,0.00,WeatherSnoop3.0,2013-07-11 12:08:00,
2013-07-11 07:13:00,77.4,66.4,29.83,East,89,3.0,-999.0,69,0.00,,,0.00,WeatherSnoop3.0,2013-07-11 12:13:00,
2013-07-11 07:18:00,77.5,66.1,29.83,ESE,103,6.0,-999.0,68,0.00,,,0.00,WeatherSnoop3.0,2013-07-11 12:18:00,
2013-07-11 07:23:00,77.5,66.1,29.83,East,93,1.0,-999.0,68,0.00,,,0.00,WeatherSnoop3.0,2013-07-11 12:23:00,
2013-07-11 07:28:00,77.6,66.2,29.83,East,91,2.0,-999.0,68,0.00,,,0.00,WeatherSnoop3.0,2013-07-11 12:28:00,
2013-07-11 07:33:00,77.6,66.2,29.82,SSE,155,4.0,-999.0,68,0.00,,,0.00,WeatherSnoop3.0,2013-07-11 12:33:00,
2013-07-11 07:38:00,77.6,66.2,29.82,East,95,1.0,-999.0,68,0.00,,,0.00,WeatherSnoop3.0,2013-07-11 12:38:00,
2013-07-11 07:43:00,77.7,66.3,29.82,East,95,3.0,-999.0,68,0.00,,,0.00,WeatherSnoop3.0,2013-07-11 12:43:00,
2013-07-11 07:48:00,77.7,66.3,29.82,East,98,5.0,-999.0,68,0.00,,,0.00,WeatherSnoop3.0,2013-07-11 12:48:00,
2013-07-11 07:53:00,77.6,66.2,29.82,East,99,0.0,-999.0,68,0.00,,,0.00,WeatherSnoop3.0,2013-07-11 12:53:00,
2013-07-11 07:58:00,77.6,66.6,29.82,ESE,105,4.0,-999.0,69,0.00,,,0.00,WeatherSnoop3.0,2013-07-11 12:58:00,
2013-07-11 08:03:00,77.7,66.7,29.83,East,99,0.0,-999.0,69,0.00,,,0.00,WeatherSnoop3.0,2013-07-11 13:03:00,
2013-07-11 08:10:00,78.0,67.4,29.84,SE,139,2.0,-999.0,70,0.00,,,0.00,WeatherSnoop3.0,2013-07-11 13:10:00,
2013-07-11 08:15:00,78.2,67.6,29.84,SSE,150,1.0,-999.0,70,0.00,,,0.00,WeatherSnoop3.0,2013-07-11 13:15:00,
2013-07-11 08:20:00,78.3,67.7,29.84,SSE,166,3.0,-999.0,70,0.00,,,0.00,WeatherSnoop3.0,2013-07-11 13:20:00,
2013-07-11 08:26:00,78.3,68.1,29.84,SE,129,2.0,-999.0,71,0.00,,,0.00,WeatherSnoop3.0,2013-07-11 13:26:00,
2013-07-11 08:31:00,78.4,68.2,29.85,SE,145,2.0,-999.0,71,0.00,,,0.00,WeatherSnoop3.0,2013-07-11 13:31:00,
2013-07-11 08:36:00,78.6,68.4,29.84,East,94,2.0,-999.0,71,0.00,,,0.00,WeatherSnoop3.0,2013-07-11 13:36:00,
2013-07-11 08:41:00,78.7,68.5,29.84,SSE,151,0.0,-999.0,71,0.00,,,0.00,WeatherSnoop3.0,2013-07-11 13:41:00,
2013-07-11 08:48:00,79.1,69.3,29.84,ESE,107,1.0,-999.0,72,0.00,,,0.00,WeatherSnoop3.0,2013-07-11 13:48:00,
2013-07-11 08:53:00,79.3,69.1,29.84,SE,143,4.0,-999.0,71,0.00,,,0.00,WeatherSnoop3.0,2013-07-11 13:53:00,
2013-07-11 09:00:00,79.3,69.5,29.84,SSE,150,4.0,-999.0,72,0.00,,,0.00,WeatherSnoop3.0,2013-07-11 14:00:00,
2013-07-11 09:05:00,79.5,69.7,29.85,SSE,150,2.0,-999.0,72,0.00,,,0.00,WeatherSnoop3.0,2013-07-11 14:05:00,
2013-07-11 09:12:00,79.6,70.2,29.85,SSE,149,4.0,-999.0,73,0.00,,,0.00,WeatherSnoop3.0,2013-07-11 14:12:00,
2013-07-11 09:17:00,79.7,70.3,29.85,SE,132,1.0,-999.0,73,0.00,,,0.00,WeatherSnoop3.0,2013-07-11 14:17:00,
2013-07-11 09:22:00,79.7,70.3,29.85,SE,142,2.0,-999.0,73,0.00,,,0.00,WeatherSnoop3.0,2013-07-11 14:22:00,
2013-07-11 09:27:00,79.8,70.4,29.86,SE,136,2.0,-999.0,73,0.00,,,0.00,WeatherSnoop3.0,2013-07-11 14:27:00,
2013-07-11 09:34:00,80.1,70.6,29.86,SSE,159,1.0,-999.0,73,0.00,,,0.00,WeatherSnoop3.0,2013-07-11 14:34:00,
2013-07-11 09:39:00,80.4,70.9,29.86,East,94,2.0,-999.0,73,0.00,,,0.00,WeatherSnoop3.0,2013-07-11 14:39:00,
2013-07-11 09:44:00,80.6,71.1,29.86,East,96,0.0,-999.0,73,0.00,,,0.00,WeatherSnoop3.0,2013-07-11 14:44:00,
2013-07-11 09:49:00,81.0,71.1,29.86,ENE,73,0.0,-999.0,72,0.00,,,0.00,WeatherSnoop3.0,2013-07-11 14:49:00,
2013-07-11 09:54:00,81.4,71.5,29.85,East,88,0.0,-999.0,72,0.00,,,0.00,WeatherSnoop3.0,2013-07-11 14:54:00,
2013-07-11 09:59:00,81.8,71.5,29.85,NE,50,3.0,-999.0,71,0.00,,,0.00,WeatherSnoop3.0,2013-07-11 14:59:00,
2013-07-11 10:05:00,82.1,70.9,29.85,ESE,104,0.0,-999.0,69,0.00,,,0.00,WeatherSnoop3.0,2013-07-11 15:05:00,
2013-07-11 10:10:00,81.9,70.7,29.86,NNE,12,4.0,-999.0,69,0.00,,,0.00,WeatherSnoop3.0,2013-07-11 15:10:00,
2013-07-11 10:15:00,81.5,70.3,29.86,NW,318,2.0,-999.0,69,0.00,,,0.00,WeatherSnoop3.0,2013-07-11 15:15:00,
2013-07-11 10:20:00,81.1,69.9,29.87,NNE,20,6.0,-999.0,69,0.00,,,0.00,WeatherSnoop3.0,2013-07-11 15:20:00,
2013-07-11 10:25:00,80.8,70.1,29.88,NNE,32,3.0,-999.0,70,0.00,,,0.00,WeatherSnoop3.0,2013-07-11 15:25:00,
2013-07-11 10:30:00,80.0,69.7,29.89,NNE,15,7.0,-999.0,71,0.00,,,0.00,WeatherSnoop3.0,2013-07-11 15:30:00,
2013-07-11 10:35:00,78.9,69.5,29.89,North,359,5.0,-999.0,73,0.00,,,0.00,WeatherSnoop3.0,2013-07-11 15:35:00,
2013-07-11 10:40:00,78.2,69.2,29.89,NNE,15,7.0,-999.0,74,0.00,,,0.00,WeatherSnoop3.0,2013-07-11 15:40:00,
2013-07-11 10:47:00,78.0,69.0,29.89,North,358,6.0,-999.0,74,0.00,,,0.00,WeatherSnoop3.0,2013-07-11 15:47:00,
2013-07-11 10:52:00,78.2,69.6,29.89,NNW,345,5.0,-999.0,75,0.00,,,0.00,WeatherSnoop3.0,2013-07-11 15:52:00,
2013-07-11 10:57:00,78.4,68.6,29.89,NNE,29,7.0,-999.0,72,0.00,,,0.00,WeatherSnoop3.0,2013-07-11 15:57:00,
2013-07-11 11:02:00,77.7,66.3,29.90,NNE,13,8.0,-999.0,68,0.00,,,0.00,WeatherSnoop3.0,2013-07-11 16:02:00,
2013-07-11 11:08:00,76.8,65.8,29.90,North,353,15.0,-999.0,69,0.00,,,0.00,WeatherSnoop3.0,2013-07-11 16:08:00,
2013-07-11 11:14:00,76.6,65.7,29.90,ENE,71,7.0,-999.0,69,0.00,,,0.00,WeatherSnoop3.0,2013-07-11 16:14:00,
2013-07-11 11:21:00,76.2,66.1,29.90,NNW,340,10.0,-999.0,71,0.00,,,0.00,WeatherSnoop3.0,2013-07-11 16:21:00,
2013-07-11 11:26:00,76.1,66.0,29.89,NE,56,6.0,-999.0,71,0.00,,,0.00,WeatherSnoop3.0,2013-07-11 16:26:00,
2013-07-11 11:31:00,76.5,66.0,29.89,NE,39,10.0,-999.0,70,0.00,,,0.00,WeatherSnoop3.0,2013-07-11 16:31:00,
2013-07-11 11:36:00,76.6,66.5,29.89,NE,46,2.0,-999.0,71,0.00,,,0.00,WeatherSnoop3.0,2013-07-11 16:36:00,
2013-07-11 11:41:00,76.9,66.4,29.89,ENE,70,8.0,-999.0,70,0.00,,,0.00,WeatherSnoop3.0,2013-07-11 16:41:00,
2013-07-11 11:48:00,76.4,65.9,29.89,East,97,10.0,-999.0,70,0.00,,,0.00,WeatherSnoop3.0,2013-07-11 16:48:00,
2013-07-11 11:53:00,75.9,65.8,29.89,NE,46,4.0,-999.0,71,0.00,,,0.00,WeatherSnoop3.0,2013-07-11 16:53:00,
2013-07-11 11:59:00,76.0,65.9,29.89,East,84,5.0,-999.0,71,0.00,,,0.00,WeatherSnoop3.0,2013-07-11 16:59:00,
2013-07-11 12:04:00,75.9,65.8,29.89,ESE,110,3.0,-999.0,71,0.00,,,0.00,WeatherSnoop3.0,2013-07-11 17:04:00,
2013-07-11 12:09:00,76.0,65.9,29.88,East,81,3.0,-999.0,71,0.00,,,0.00,WeatherSnoop3.0,2013-07-11 17:09:00,
2013-07-11 12:14:00,76.4,65.9,29.88,NE,41,9.0,-999.0,70,0.00,,,0.00,WeatherSnoop3.0,2013-07-11 17:14:00,
2013-07-11 12:19:00,76.3,65.8,29.88,East,84,3.0,-999.0,70,0.00,,,0.00,WeatherSnoop3.0,2013-07-11 17:19:00,
2013-07-11 12:27:00,76.5,65.6,29.88,ENE,70,4.0,-999.0,69,0.00,,,0.00,WeatherSnoop3.0,2013-07-11 17:27:00,
2013-07-11 12:32:00,76.8,65.8,29.88,North,355,5.0,-999.0,69,0.00,,,0.00,WeatherSnoop3.0,2013-07-11 17:32:00,
2013-07-11 12:38:00,77.0,66.0,29.88,NE,50,6.0,-999.0,69,0.00,,,0.00,WeatherSnoop3.0,2013-07-11 17:38:00,
2013-07-11 12:43:00,77.2,66.2,29.88,ENE,77,5.0,-999.0,69,0.00,,,0.00,WeatherSnoop3.0,2013-07-11 17:43:00,
2013-07-11 12:48:00,77.5,66.5,29.88,ENE,65,2.0,-999.0,69,0.00,,,0.00,WeatherSnoop3.0,2013-07-11 17:48:00,
2013-07-11 12:53:00,77.6,66.6,29.87,ESE,104,2.0,-999.0,69,0.00,,,0.00,WeatherSnoop3.0,2013-07-11 17:53:00,
2013-07-11 12:58:00,78.4,67.4,29.87,ENE,74,2.0,-999.0,69,0.00,,,0.00,WeatherSnoop3.0,2013-07-11 17:58:00,
2013-07-11 13:05:00,79.9,68.4,29.87,ENE,68,6.0,-999.0,68,0.00,,,0.00,WeatherSnoop3.0,2013-07-11 18:05:00,
2013-07-11 13:11:00,81.4,69.4,29.86,NE,44,4.0,-999.0,67,0.00,,,0.00,WeatherSnoop3.0,2013-07-11 18:11:00,
2013-07-11 13:18:00,82.1,69.1,29.85,NE,39,3.0,-999.0,65,0.00,,,0.00,WeatherSnoop3.0,2013-07-11 18:18:00,
2013-07-11 13:25:00,83.3,69.4,29.85,ENE,78,3.0,-999.0,63,0.00,,,0.00,WeatherSnoop3.0,2013-07-11 18:25:00,
2013-07-11 13:30:00,83.5,68.6,29.85,ENE,64,5.0,-999.0,61,0.00,,,0.00,WeatherSnoop3.0,2013-07-11 18:30:00,
2013-07-11 13:35:00,83.9,68.5,29.84,East,92,2.0,-999.0,60,0.00,,,0.00,WeatherSnoop3.0,2013-07-11 18:35:00,
2013-07-11 13:40:00,84.2,68.3,29.84,East,95,7.0,-999.0,59,0.00,,,0.00,WeatherSnoop3.0,2013-07-11 18:40:00,
2013-07-11 13:46:00,84.0,67.1,29.84,ENE,71,3.0,-999.0,57,0.00,,,0.00,WeatherSnoop3.0,2013-07-11 18:46:00,
2013-07-11 13:51:00,84.1,67.7,29.83,NNE,29,1.0,-999.0,58,0.00,,,0.00,WeatherSnoop3.0,2013-07-11 18:51:00,
2013-07-11 13:56:00,84.6,67.7,29.83,SE,142,6.0,-999.0,57,0.00,,,0.00,WeatherSnoop3.0,2013-07-11 18:56:00,
2013-07-11 14:01:00,84.7,66.7,29.83,East,88,0.0,-999.0,55,0.00,,,0.00,WeatherSnoop3.0,2013-07-11 19:01:00,
2013-07-11 14:07:00,85.1,67.6,29.82,East,94,2.0,-999.0,56,0.00,,,0.00,WeatherSnoop3.0,2013-07-11 19:07:00,
2013-07-11 14:12:00,86.0,69.0,29.82,East,101,2.0,-999.0,57,0.00,,,0.00,WeatherSnoop3.0,2013-07-11 19:12:00,
2013-07-11 14:18:00,86.1,67.5,29.82,SE,146,5.0,-999.0,54,0.00,,,0.00,WeatherSnoop3.0,2013-07-11 19:18:00,
2013-07-11 14:25:00,86.0,67.9,29.81,East,87,1.0,-999.0,55,0.00,,,0.00,WeatherSnoop3.0,2013-07-11 19:25:00,
2013-07-11 14:32:00,86.7,69.1,29.81,ESE,115,2.0,-999.0,56,0.00,,,0.00,WeatherSnoop3.0,2013-07-11 19:32:00,
2013-07-11 14:37:00,87.2,68.0,29.81,SSE,152,5.0,-999.0,53,0.00,,,0.00,WeatherSnoop3.0,2013-07-11 19:37:00,
2013-07-11 14:44:00,87.6,68.3,29.81,East,82,1.0,-999.0,53,0.00,,,0.00,WeatherSnoop3.0,2013-07-11 19:44:00,
2013-07-11 14:49:00,87.9,68.0,29.81,ENE,61,4.0,-999.0,52,0.00,,,0.00,WeatherSnoop3.0,2013-07-11 19:49:00,
2013-07-11 14:54:00,88.1,68.2,29.81,ESE,116,3.0,-999.0,52,0.00,,,0.00,WeatherSnoop3.0,2013-07-11 19:54:00,
2013-07-11 15:00:00,87.9,69.7,29.81,ESE,105,1.0,-999.0,55,0.00,,,0.00,WeatherSnoop3.0,2013-07-11 20:00:00,
2013-07-11 15:05:00,87.7,69.5,29.81,East,92,3.0,-999.0,55,0.00,,,0.00,WeatherSnoop3.0,2013-07-11 20:05:00,
2013-07-11 15:10:00,87.6,69.9,29.81,ESE,107,2.0,-999.0,56,0.00,,,0.00,WeatherSnoop3.0,2013-07-11 20:10:00,
2013-07-11 15:16:00,88.6,70.9,29.81,SSE,160,6.0,-999.0,56,0.00,,,0.00,WeatherSnoop3.0,2013-07-11 20:16:00,
2013-07-11 15:21:00,89.2,71.4,29.80,SE,131,3.0,-999.0,56,0.00,,,0.00,WeatherSnoop3.0,2013-07-11 20:21:00,
2013-07-11 15:26:00,89.6,71.3,29.80,South,177,1.0,-999.0,55,0.00,,,0.00,WeatherSnoop3.0,2013-07-11 20:26:00,
2013-07-11 15:34:00,89.9,70.4,29.80,East,86,6.0,-999.0,53,0.00,,,0.00,WeatherSnoop3.0,2013-07-11 20:34:00,
2013-07-11 15:39:00,90.0,70.5,29.80,ESE,122,3.0,-999.0,53,0.00,,,0.00,WeatherSnoop3.0,2013-07-11 20:39:00,
2013-07-11 15:44:00,89.9,71.0,29.80,East,84,3.0,-999.0,54,0.00,,,0.00,WeatherSnoop3.0,2013-07-11 20:44:00,
2013-07-11 15:49:00,90.2,71.3,29.80,SE,139,6.0,-999.0,54,0.00,,,0.00,WeatherSnoop3.0,2013-07-11 20:49:00,
2013-07-11 15:56:00,90.8,71.3,29.80,ESE,116,2.0,-999.0,53,0.00,,,0.00,WeatherSnoop3.0,2013-07-11 20:56:00,
2013-07-11 16:02:00,91.2,69.9,29.80,South,177,4.0,-999.0,50,0.00,,,0.00,WeatherSnoop3.0,2013-07-11 21:02:00,
2013-07-11 16:07:00,91.1,68.6,29.80,ESE,113,6.0,-999.0,48,0.00,,,0.00,WeatherSnoop3.0,2013-07-11 21:07:00,
2013-07-11 16:12:00,91.1,70.4,29.79,SE,140,3.0,-999.0,51,0.00,,,0.00,WeatherSnoop3.0,2013-07-11 21:12:00,
2013-07-11 16:17:00,91.5,69.0,29.79,SSE,150,5.0,-999.0,48,0.00,,,0.00,WeatherSnoop3.0,2013-07-11 21:17:00,
2013-07-11 16:22:00,91.7,71.0,29.79,East,82,3.0,-999.0,51,0.00,,,0.00,WeatherSnoop3.0,2013-07-11 21:22:00,
2013-07-11 16:27:00,91.6,70.9,29.79,SSE,152,8.0,-999.0,51,0.00,,,0.00,WeatherSnoop3.0,2013-07-11 21:27:00,
2013-07-11 16:32:00,91.8,68.0,29.78,SE,129,2.0,-999.0,46,0.00,,,0.00,WeatherSnoop3.0,2013-07-11 21:32:00,
2013-07-11 16:37:00,91.9,67.5,29.78,SE,143,3.0,-999.0,45,0.00,,,0.00,WeatherSnoop3.0,2013-07-11 21:37:00,
2013-07-11 16:42:00,92.0,66.9,29.78,ESE,107,5.0,-999.0,44,0.00,,,0.00,WeatherSnoop3.0,2013-07-11 21:42:00,
2013-07-11 16:49:00,92.5,66.7,29.78,SSE,152,2.0,-999.0,43,0.00,,,0.00,WeatherSnoop3.0,2013-07-11 21:49:00,
2013-07-11 16:54:00,92.7,66.9,29.78,SSE,150,4.0,-999.0,43,0.00,,,0.00,WeatherSnoop3.0,2013-07-11 21:54:00,
2013-07-11 16:59:00,92.8,67.0,29.78,ESE,104,3.0,-999.0,43,0.00,,,0.00,WeatherSnoop3.0,2013-07-11 21:59:00,
2013-07-11 17:04:00,92.8,67.6,29.77,SE,143,4.0,-999.0,44,0.00,,,0.00,WeatherSnoop3.0,2013-07-11 22:04:00,
2013-07-11 17:12:00,92.9,68.4,29.77,SE,125,7.0,-999.0,45,0.00,,,0.00,WeatherSnoop3.0,2013-07-11 22:12:00,
2013-07-11 17:19:00,93.1,68.6,29.77,SE,129,2.0,-999.0,45,0.00,,,0.00,WeatherSnoop3.0,2013-07-11 22:19:00,
2013-07-11 17:24:00,92.9,69.0,29.76,SE,129,2.0,-999.0,46,0.00,,,0.00,WeatherSnoop3.0,2013-07-11 22:24:00,
2013-07-11 17:29:00,92.9,67.7,29.76,SSE,163,10.0,-999.0,44,0.00,,,0.00,WeatherSnoop3.0,2013-07-11 22:29:00,
2013-07-11 17:34:00,92.7,66.9,29.76,SSE,151,3.0,-999.0,43,0.00,,,0.00,WeatherSnoop3.0,2013-07-11 22:34:00,
2013-07-11 17:39:00,92.8,66.3,29.76,SE,129,6.0,-999.0,42,0.00,,,0.00,WeatherSnoop3.0,2013-07-11 22:39:00,
2013-07-11 17:44:00,92.9,66.4,29.76,ESE,116,5.0,-999.0,42,0.00,,,0.00,WeatherSnoop3.0,2013-07-11 22:44:00,
2013-07-11 17:50:00,93.1,66.6,29.76,ESE,105,4.0,-999.0,42,0.00,,,0.00,WeatherSnoop3.0,2013-07-11 22:50:00,
2013-07-11 17:55:00,93.0,65.8,29.76,SSE,150,5.0,-999.0,41,0.00,,,0.00,WeatherSnoop3.0,2013-07-11 22:55:00,
2013-07-11 18:02:00,93.0,66.5,29.76,SE,125,0.0,-999.0,42,0.00,,,0.00,WeatherSnoop3.0,2013-07-11 23:02:00,
2013-07-11 18:07:00,93.0,65.8,29.76,SE,142,3.0,-999.0,41,0.00,,,0.00,WeatherSnoop3.0,2013-07-11 23:07:00,
2013-07-11 18:12:00,93.1,66.6,29.75,SE,134,2.0,-999.0,42,0.00,,,0.00,WeatherSnoop3.0,2013-07-11 23:12:00,
2013-07-11 18:17:00,93.1,66.6,29.75,SE,129,3.0,-999.0,42,0.00,,,0.00,WeatherSnoop3.0,2013-07-11 23:17:00,
2013-07-11 18:24:00,93.1,66.6,29.75,SE,129,4.0,-999.0,42,0.00,,,0.00,WeatherSnoop3.0,2013-07-11 23:24:00,
2013-07-11 18:33:00,92.9,66.4,29.76,SSE,166,4.0,-999.0,42,0.00,,,0.00,WeatherSnoop3.0,2013-07-11 23:33:00,
2013-07-11 18:40:00,92.8,66.3,29.75,ESE,115,1.0,-999.0,42,0.00,,,0.00,WeatherSnoop3.0,2013-07-11 23:40:00,
2013-07-11 18:45:00,92.7,66.2,29.75,SSE,158,1.0,-999.0,42,0.00,,,0.00,WeatherSnoop3.0,2013-07-11 23:45:00,
2013-07-11 18:50:00,92.6,65.4,29.75,SSW,205,2.0,-999.0,41,0.00,,,0.00,WeatherSnoop3.0,2013-07-11 23:50:00,
2013-07-11 18:55:00,92.4,65.2,29.75,ESE,118,5.0,-999.0,41,0.00,,,0.00,WeatherSnoop3.0,2013-07-11 23:55:00,
2013-07-11 19:00:00,92.4,65.2,29.75,SE,128,7.0,-999.0,41,0.00,,,0.00,WeatherSnoop3.0,2013-07-12 00:00:00,
2013-07-11 19:07:00,92.1,65.7,29.75,SE,129,3.0,-999.0,42,0.00,,,0.00,WeatherSnoop3.0,2013-07-12 00:07:00,
2013-07-11 19:13:00,92.1,66.3,29.75,ESE,123,2.0,-999.0,43,0.00,,,0.00,WeatherSnoop3.0,2013-07-12 00:13:00,
2013-07-11 19:18:00,91.9,66.2,29.75,SE,139,3.0,-999.0,43,0.00,,,0.00,WeatherSnoop3.0,2013-07-12 00:18:00,
2013-07-11 19:23:00,91.7,67.3,29.75,SSE,163,2.0,-999.0,45,0.00,,,0.00,WeatherSnoop3.0,2013-07-12 00:23:00,
2013-07-11 19:28:00,91.6,67.8,29.75,SE,143,2.0,-999.0,46,0.00,,,0.00,WeatherSnoop3.0,2013-07-12 00:28:00,
2013-07-11 19:33:00,91.4,67.0,29.75,SSE,155,3.0,-999.0,45,0.00,,,0.00,WeatherSnoop3.0,2013-07-12 00:33:00,
2013-07-11 19:38:00,91.2,67.5,29.75,ESE,105,1.0,-999.0,46,0.00,,,0.00,WeatherSnoop3.0,2013-07-12 00:38:00,
2013-07-11 19:43:00,91.0,67.9,29.75,East,83,4.0,-999.0,47,0.00,,,0.00,WeatherSnoop3.0,2013-07-12 00:43:00,
2013-07-11 19:48:00,90.7,68.3,29.76,SSE,159,4.0,-999.0,48,0.00,,,0.00,WeatherSnoop3.0,2013-07-12 00:48:00,
2013-07-11 19:53:00,90.2,67.8,29.76,East,94,3.0,-999.0,48,0.00,,,0.00,WeatherSnoop3.0,2013-07-12 00:53:00,
2013-07-11 19:58:00,89.9,68.1,29.76,East,98,1.0,-999.0,49,0.00,,,0.00,WeatherSnoop3.0,2013-07-12 00:58:00,
2013-07-11 20:06:00,89.4,68.3,29.76,SSE,150,3.0,-999.0,50,0.00,,,0.00,WeatherSnoop3.0,2013-07-12 01:06:00,
2013-07-11 20:12:00,89.1,68.6,29.76,ESE,105,0.0,-999.0,51,0.00,,,0.00,WeatherSnoop3.0,2013-07-12 01:12:00,
2013-07-11 20:17:00,88.5,69.1,29.76,NNE,26,6.0,-999.0,53,0.00,,,0.00,WeatherSnoop3.0,2013-07-12 01:17:00,
2013-07-11 20:22:00,87.8,69.0,29.76,East,91,0.0,-999.0,54,0.00,,,0.00,WeatherSnoop3.0,2013-07-12 01:22:00,
2013-07-11 20:27:00,87.4,68.7,29.76,ESE,107,1.0,-999.0,54,0.00,,,0.00,WeatherSnoop3.0,2013-07-12 01:27:00,
2013-07-11 20:32:00,86.9,68.2,29.76,East,92,1.0,-999.0,54,0.00,,,0.00,WeatherSnoop3.0,2013-07-12 01:32:00,
2013-07-11 20:37:00,86.5,68.4,29.76,SSE,150,1.0,-999.0,55,0.00,,,0.00,WeatherSnoop3.0,2013-07-12 01:37:00,
2013-07-11 20:43:00,86.0,68.4,29.77,East,92,1.0,-999.0,56,0.00,,,0.00,WeatherSnoop3.0,2013-07-12 01:43:00,
2013-07-11 20:48:00,85.6,68.1,29.77,ESE,110,1.0,-999.0,56,0.00,,,0.00,WeatherSnoop3.0,2013-07-12 01:48:00,
2013-07-11 20:53:00,85.2,68.2,29.77,East,98,0.0,-999.0,57,0.00,,,0.00,WeatherSnoop3.0,2013-07-12 01:53:00,
2013-07-11 20:58:00,85.1,68.1,29.77,ESE,102,2.0,-999.0,57,0.00,,,0.00,WeatherSnoop3.0,2013-07-12 01:58:00,
2013-07-11 21:03:00,84.9,67.9,29.77,East,98,2.0,-999.0,57,0.00,,,0.00,WeatherSnoop3.0,2013-07-12 02:03:00,
2013-07-11 21:10:00,84.7,67.8,29.77,ENE,77,1.0,-999.0,57,0.00,,,0.00,WeatherSnoop3.0,2013-07-12 02:10:00,
2013-07-11 21:15:00,84.5,68.1,29.77,East,80,1.0,-999.0,58,0.00,,,0.00,WeatherSnoop3.0,2013-07-12 02:15:00,
2013-07-11 21:20:00,84.3,67.9,29.77,ESE,119,1.0,-999.0,58,0.00,,,0.00,WeatherSnoop3.0,2013-07-12 02:20:00,
2013-07-11 21:27:00,84.1,67.7,29.77,East,91,2.0,-999.0,58,0.00,,,0.00,WeatherSnoop3.0,2013-07-12 02:27:00,
2013-07-11 21:32:00,84.0,67.6,29.77,East,95,2.0,-999.0,58,0.00,,,0.00,WeatherSnoop3.0,2013-07-12 02:32:00,
2013-07-11 21:39:00,83.8,67.4,29.77,ESE,107,0.0,-999.0,58,0.00,,,0.00,WeatherSnoop3.0,2013-07-12 02:39:00,
2013-07-11 21:44:00,83.6,67.2,29.78,SSW,204,1.0,-999.0,58,0.00,,,0.00,WeatherSnoop3.0,2013-07-12 02:44:00,
2013-07-11 21:49:00,83.6,67.2,29.78,East,92,1.0,-999.0,58,0.00,,,0.00,WeatherSnoop3.0,2013-07-12 02:49:00,
2013-07-11 21:54:00,83.4,67.0,29.78,ESE,114,0.0,-999.0,58,0.00,,,0.00,WeatherSnoop3.0,2013-07-12 02:54:00,
2013-07-11 21:59:00,83.2,66.9,29.78,ESE,102,1.0,-999.0,58,0.00,,,0.00,WeatherSnoop3.0,2013-07-12 02:59:00,
2013-07-11 22:04:00,83.0,66.7,29.78,ESE,117,1.0,-999.0,58,0.00,,,0.00,WeatherSnoop3.0,2013-07-12 03:04:00,
2013-07-11 22:09:00,82.8,67.0,29.79,East,94,0.0,-999.0,59,0.00,,,0.00,WeatherSnoop3.0,2013-07-12 03:09:00,
2013-07-11 22:14:00,82.6,66.8,29.79,East,81,0.0,-999.0,59,0.00,,,0.00,WeatherSnoop3.0,2013-07-12 03:14:00,
2013-07-11 22:21:00,82.4,66.6,29.79,SE,138,1.0,-999.0,59,0.00,,,0.00,WeatherSnoop3.0,2013-07-12 03:21:00,
2013-07-11 22:26:00,82.2,66.4,29.79,ESE,116,1.0,-999.0,59,0.00,,,0.00,WeatherSnoop3.0,2013-07-12 03:26:00,
2013-07-11 22:31:00,82.1,66.3,29.79,ESE,119,1.0,-999.0,59,0.00,,,0.00,WeatherSnoop3.0,2013-07-12 03:31:00,
2013-07-11 22:37:00,81.9,66.1,29.80,ESE,103,0.0,-999.0,59,0.00,,,0.00,WeatherSnoop3.0,2013-07-12 03:37:00,
2013-07-11 22:42:00,81.8,66.0,29.80,East,93,0.0,-999.0,59,0.00,,,0.00,WeatherSnoop3.0,2013-07-12 03:42:00,
2013-07-11 22:47:00,81.6,65.9,29.80,East,91,1.0,-999.0,59,0.00,,,0.00,WeatherSnoop3.0,2013-07-12 03:47:00,
2013-07-11 22:55:00,81.5,65.3,29.80,East,93,0.0,-999.0,58,0.00,,,0.00,WeatherSnoop3.0,2013-07-12 03:55:00,
2013-07-11 23:00:00,81.4,65.2,29.80,SE,142,0.0,-999.0,58,0.00,,,0.00,WeatherSnoop3.0,2013-07-12 04:00:00,
2013-07-11 23:01:00,81.4,65.2,29.80,SE,124,1.0,-999.0,58,0.00,,,0.00,WeatherSnoop3.0,2013-07-12 04:01:00,
2013-07-11 23:02:00,81.3,65.1,29.80,East,97,1.0,-999.0,58,0.00,,,0.00,WeatherSnoop3.0,2013-07-12 04:02:00,
2013-07-11 23:07:00,81.3,64.6,29.80,ESE,104,1.0,-999.0,57,0.00,,,0.00,WeatherSnoop3.0,2013-07-12 04:07:00,
2013-07-11 23:08:00,81.4,64.7,29.80,SE,131,1.0,-999.0,57,0.00,,,0.00,WeatherSnoop3.0,2013-07-12 04:08:00,
2013-07-11 23:11:00,81.4,64.7,29.80,East,93,0.0,-999.0,57,0.00,,,0.00,WeatherSnoop3.0,2013-07-12 04:11:00,
2013-07-11 23:16:00,81.1,64.4,29.80,ESE,113,0.0,-999.0,57,0.00,,,0.00,WeatherSnoop3.0,2013-07-12 04:16:00,
2013-07-11 23:21:00,81.1,64.4,29.80,East,98,0.0,-999.0,57,0.00,,,0.00,WeatherSnoop3.0,2013-07-12 04:21:00,
2013-07-11 23:26:00,80.9,64.2,29.80,ESE,122,0.0,-999.0,57,0.00,,,0.00,WeatherSnoop3.0,2013-07-12 04:26:00,
2013-07-11 23:31:00,80.7,64.0,29.80,East,89,0.0,-999.0,57,0.00,,,0.00,WeatherSnoop3.0,2013-07-12 04:31:00,
2013-07-11 23:36:00,80.6,63.9,29.80,East,89,0.0,-999.0,57,0.00,,,0.00,WeatherSnoop3.0,2013-07-12 04:36:00,
2013-07-11 23:41:00,80.4,63.7,29.80,East,89,0.0,-999.0,57,0.00,,,0.00,WeatherSnoop3.0,2013-07-12 04:41:00,
2013-07-11 23:46:00,80.2,63.6,29.81,East,100,0.0,-999.0,57,0.00,,,0.00,WeatherSnoop3.0,2013-07-12 04:46:00,
2013-07-11 23:51:00,80.1,63.5,29.81,ESE,110,0.0,-999.0,57,0.00,,,0.00,WeatherSnoop3.0,2013-07-12 04:51:00,
2013-07-11 23:56:00,80.0,63.9,29.80,ESE,121,0.0,-999.0,58,0.00,,,0.00,WeatherSnoop3.0,2013-07-12 04:56:00,